Time,TemperatureF,DewpointF,PressureIn,WindDirection,WindDirectionDegrees,WindSpeedMPH,WindSpeedGustMPH,Humidity,HourlyPrecipIn,Conditions,Clouds,dailyrainin,SolarRadiationWatts/m^2,SoftwareType,DateUTC
2013-04-01 00:02:00,19.0,1.0,-100.00,NNW,343,6.0,14.0,45,0.00,,,0.00,0.000000,,2013-04-01 05:02:00,
2013-04-01 00:33:00,18.0,1.0,-100.00,NNW,336,5.0,14.0,46,0.00,,,0.00,0.000000,,2013-04-01 05:33:00,
2013-04-01 00:43:00,18.0,1.0,-100.00,NNW,336,5.0,14.0,46,0.00,,,0.00,0.000000,,2013-04-01 05:43:00,
2013-04-01 00:53:00,18.0,1.0,-100.00,NNW,336,5.0,14.0,46,0.00,,,0.00,0.000000,,2013-04-01 05:53:00,
2013-04-01 01:02:00,18.0,1.0,-100.00,NNW,336,5.0,14.0,46,0.00,,,0.00,0.000000,,2013-04-01 06:02:00,
2013-04-01 01:23:00,18.0,2.0,-100.00,NNW,336,6.0,11.0,49,0.00,,,0.00,0.000000,,2013-04-01 06:23:00,
2013-04-01 01:34:00,18.0,2.0,-100.00,NNW,336,6.0,11.0,49,0.00,,,0.00,0.000000,,2013-04-01 06:34:00,
2013-04-01 01:43:00,18.0,2.0,-100.00,NNW,336,6.0,11.0,49,0.00,,,0.00,0.000000,,2013-04-01 06:43:00,
2013-04-01 01:53:00,18.0,2.0,-100.00,NNW,336,6.0,11.0,49,0.00,,,0.00,0.000000,,2013-04-01 06:53:00,
2013-04-01 02:02:00,18.0,2.0,-100.00,NNW,336,6.0,11.0,49,0.00,,,0.00,0.000000,,2013-04-01 07:02:00,
2013-04-01 02:22:00,18.0,4.0,-100.00,NNW,337,6.0,10.0,53,0.00,,,0.00,0.000000,,2013-04-01 07:22:00,
2013-04-01 02:32:00,18.0,4.0,-100.00,NNW,337,6.0,10.0,53,0.00,,,0.00,0.000000,,2013-04-01 07:32:00,
2013-04-01 02:43:00,18.0,4.0,-100.00,NNW,337,6.0,10.0,53,0.00,,,0.00,0.000000,,2013-04-01 07:43:00,
2013-04-01 02:53:00,18.0,4.0,-100.00,NNW,337,6.0,10.0,53,0.00,,,0.00,0.000000,,2013-04-01 07:53:00,
2013-04-01 03:02:00,18.0,4.0,-100.00,NNW,337,6.0,10.0,53,0.00,,,0.00,0.000000,,2013-04-01 08:02:00,
2013-04-01 03:22:00,17.0,2.0,-100.00,NW,315,7.0,17.0,52,0.00,,,0.00,0.000000,,2013-04-01 08:22:00,
2013-04-01 03:32:00,17.0,2.0,-100.00,NW,315,7.0,17.0,52,0.00,,,0.00,0.000000,,2013-04-01 08:32:00,
2013-04-01 03:43:00,17.0,2.0,-100.00,NW,315,7.0,17.0,52,0.00,,,0.00,0.000000,,2013-04-01 08:43:00,
2013-04-01 03:53:00,17.0,2.0,-100.00,NW,315,7.0,17.0,52,0.00,,,0.00,0.000000,,2013-04-01 08:53:00,
2013-04-01 04:02:00,17.0,2.0,-100.00,NW,315,7.0,17.0,52,0.00,,,0.00,0.000000,,2013-04-01 09:02:00,
2013-04-01 04:33:00,16.0,1.0,-100.00,NNW,327,8.0,18.0,51,0.00,,,0.00,0.000000,,2013-04-01 09:33:00,
2013-04-01 04:43:00,16.0,1.0,-100.00,NNW,327,8.0,18.0,51,0.00,,,0.00,0.000000,,2013-04-01 09:43:00,
2013-04-01 04:53:00,16.0,1.0,-100.00,NNW,327,8.0,18.0,51,0.00,,,0.00,0.000000,,2013-04-01 09:53:00,
2013-04-01 05:03:00,16.0,1.0,-100.00,NNW,327,8.0,18.0,51,0.00,,,0.00,0.000000,,2013-04-01 10:03:00,
2013-04-01 05:34:00,15.0,1.0,-100.00,NNW,337,7.0,16.0,54,0.00,,,0.00,0.000000,,2013-04-01 10:34:00,
2013-04-01 05:43:00,15.0,1.0,-100.00,NNW,337,7.0,16.0,54,0.00,,,0.00,0.000000,,2013-04-01 10:43:00,
2013-04-01 05:53:00,15.0,1.0,-100.00,NNW,337,7.0,16.0,54,0.00,,,0.00,0.000000,,2013-04-01 10:53:00,
2013-04-01 06:03:00,15.0,1.0,-100.00,NNW,337,7.0,16.0,54,0.00,,,0.00,0.000000,,2013-04-01 11:03:00,
2013-04-01 06:33:00,12.0,0.0,-100.00,NNW,343,4.0,15.0,57,0.00,,,0.00,0.000000,,2013-04-01 11:33:00,
2013-04-01 06:43:00,12.0,0.0,-100.00,NNW,343,4.0,15.0,57,0.00,,,0.00,0.000000,,2013-04-01 11:43:00,
2013-04-01 06:53:00,12.0,0.0,-100.00,NNW,343,4.0,15.0,57,0.00,,,0.00,0.000000,,2013-04-01 11:53:00,
2013-04-01 07:02:00,12.0,0.0,-100.00,NNW,343,4.0,15.0,57,0.00,,,0.00,0.000000,,2013-04-01 12:02:00,
2013-04-01 07:23:00,10.0,1.0,-100.00,NW,319,4.0,9.0,66,0.00,,,0.00,4.000000,,2013-04-01 12:23:00,
2013-04-01 07:32:00,10.0,1.0,-100.00,NW,319,4.0,9.0,66,0.00,,,0.00,4.000000,,2013-04-01 12:32:00,
2013-04-01 07:43:00,10.0,1.0,-100.00,NW,319,4.0,9.0,66,0.00,,,0.00,4.000000,,2013-04-01 12:43:00,
2013-04-01 07:53:00,10.0,1.0,-100.00,NW,319,4.0,9.0,66,0.00,,,0.00,4.000000,,2013-04-01 12:53:00,
2013-04-01 08:02:00,10.0,1.0,-100.00,NW,319,4.0,9.0,66,0.00,,,0.00,4.000000,,2013-04-01 13:02:00,
2013-04-01 08:22:00,14.0,2.0,-100.00,NW,323,5.0,9.0,58,0.00,,,0.00,124.000000,,2013-04-01 13:22:00,
2013-04-01 08:33:00,14.0,2.0,-100.00,NW,323,5.0,9.0,58,0.00,,,0.00,124.000000,,2013-04-01 13:33:00,
2013-04-01 08:43:00,14.0,2.0,-100.00,NW,323,5.0,9.0,58,0.00,,,0.00,124.000000,,2013-04-01 13:43:00,
2013-04-01 08:52:00,14.0,2.0,-100.00,NW,323,5.0,9.0,58,0.00,,,0.00,124.000000,,2013-04-01 13:52:00,
2013-04-01 09:03:00,14.0,2.0,-100.00,NW,323,5.0,9.0,58,0.00,,,0.00,124.000000,,2013-04-01 14:03:00,
2013-04-01 09:33:00,18.0,2.0,-100.00,WNW,298,7.0,12.0,49,0.00,,,0.00,335.000000,,2013-04-01 14:33:00,
2013-04-01 09:43:00,18.0,2.0,-100.00,WNW,298,7.0,12.0,49,0.00,,,0.00,335.000000,,2013-04-01 14:43:00,
2013-04-01 09:53:00,18.0,2.0,-100.00,WNW,298,7.0,12.0,49,0.00,,,0.00,335.000000,,2013-04-01 14:53:00,
2013-04-01 10:03:00,18.0,2.0,-100.00,WNW,298,7.0,12.0,49,0.00,,,0.00,335.000000,,2013-04-01 15:03:00,
2013-04-01 10:23:00,22.0,3.0,-100.00,WNW,301,6.0,15.0,44,0.00,,,0.00,526.000000,,2013-04-01 15:23:00,
2013-04-01 10:34:00,22.0,3.0,-100.00,WNW,301,6.0,15.0,44,0.00,,,0.00,526.000000,,2013-04-01 15:34:00,
2013-04-01 10:43:00,22.0,3.0,-100.00,WNW,301,6.0,15.0,44,0.00,,,0.00,526.000000,,2013-04-01 15:43:00,
2013-04-01 10:54:00,22.0,3.0,-100.00,WNW,301,6.0,15.0,44,0.00,,,0.00,526.000000,,2013-04-01 15:54:00,
2013-04-01 11:03:00,22.0,3.0,-100.00,WNW,301,6.0,15.0,44,0.00,,,0.00,526.000000,,2013-04-01 16:03:00,
2013-04-01 12:32:00,28.0,4.0,-100.00,WNW,298,11.0,20.0,35,-99.99,,,0.00,773.000000,,2013-04-01 17:32:00,
2013-04-01 12:42:00,28.0,4.0,-100.00,WNW,298,11.0,20.0,35,-99.99,,,0.00,773.000000,,2013-04-01 17:42:00,
2013-04-01 12:53:00,28.0,4.0,-100.00,WNW,298,11.0,20.0,35,-99.99,,,0.00,773.000000,,2013-04-01 17:53:00,
2013-04-01 13:02:00,28.0,4.0,-100.00,WNW,298,11.0,20.0,35,-99.99,,,0.00,773.000000,,2013-04-01 18:02:00,
2013-04-01 13:33:00,30.0,4.0,-100.00,NW,308,8.0,24.0,33,0.00,,,0.00,878.000000,,2013-04-01 18:33:00,
2013-04-01 13:43:00,30.0,4.0,-100.00,NW,308,8.0,24.0,33,0.00,,,0.00,878.000000,,2013-04-01 18:43:00,
2013-04-01 13:53:00,30.0,4.0,-100.00,NW,308,8.0,24.0,33,0.00,,,0.00,878.000000,,2013-04-01 18:53:00,
2013-04-01 14:03:00,30.0,4.0,-100.00,NW,308,8.0,24.0,33,0.00,,,0.00,878.000000,,2013-04-01 19:03:00,
2013-04-01 14:32:00,30.0,2.0,-100.00,NW,306,9.0,20.0,30,0.00,,,0.00,917.000000,,2013-04-01 19:32:00,
2013-04-01 14:43:00,30.0,2.0,-100.00,NW,306,9.0,20.0,30,0.00,,,0.00,917.000000,,2013-04-01 19:43:00,
2013-04-01 14:53:00,30.0,2.0,-100.00,NW,306,9.0,20.0,30,0.00,,,0.00,917.000000,,2013-04-01 19:53:00,
2013-04-01 15:02:00,30.0,2.0,-100.00,NW,306,9.0,20.0,30,0.00,,,0.00,917.000000,,2013-04-01 20:02:00,
2013-04-01 15:33:00,31.0,3.0,-100.00,NNW,337,8.0,17.0,29,0.00,,,0.00,373.000000,,2013-04-01 20:33:00,
2013-04-01 15:43:00,31.0,3.0,-100.00,NNW,337,8.0,17.0,29,0.00,,,0.00,373.000000,,2013-04-01 20:43:00,
2013-04-01 15:52:00,31.0,3.0,-100.00,NNW,337,8.0,17.0,29,0.00,,,0.00,373.000000,,2013-04-01 20:52:00,
2013-04-01 16:02:00,31.0,3.0,-100.00,NNW,337,8.0,17.0,29,0.00,,,0.00,373.000000,,2013-04-01 21:02:00,
2013-04-01 16:33:00,33.0,2.0,-100.00,WNW,288,9.0,19.0,26,0.00,,,0.00,576.000000,,2013-04-01 21:33:00,
2013-04-01 16:43:00,33.0,2.0,-100.00,WNW,288,9.0,19.0,26,0.00,,,0.00,576.000000,,2013-04-01 21:43:00,
2013-04-01 16:53:00,33.0,2.0,-100.00,WNW,288,9.0,19.0,26,0.00,,,0.00,576.000000,,2013-04-01 21:53:00,
2013-04-01 17:02:00,33.0,2.0,-100.00,WNW,288,9.0,19.0,26,0.00,,,0.00,576.000000,,2013-04-01 22:02:00,
2013-04-01 17:33:00,32.0,0.0,-100.00,NW,307,10.0,19.0,25,0.00,,,0.00,582.000000,,2013-04-01 22:33:00,
2013-04-01 17:43:00,32.0,0.0,-100.00,NW,307,10.0,19.0,25,0.00,,,0.00,582.000000,,2013-04-01 22:43:00,
2013-04-01 17:52:00,32.0,0.0,-100.00,NW,307,10.0,19.0,25,0.00,,,0.00,582.000000,,2013-04-01 22:52:00,
2013-04-01 18:02:00,32.0,0.0,-100.00,NW,307,10.0,19.0,25,0.00,,,0.00,582.000000,,2013-04-01 23:02:00,
2013-04-01 18:32:00,30.0,-2.0,-100.00,NW,306,7.0,21.0,25,0.00,,,0.00,379.000000,,2013-04-01 23:32:00,
2013-04-01 18:43:00,30.0,-2.0,-100.00,NW,306,7.0,21.0,25,0.00,,,0.00,379.000000,,2013-04-01 23:43:00,
2013-04-01 18:53:00,30.0,-2.0,-100.00,NW,306,7.0,21.0,25,0.00,,,0.00,379.000000,,2013-04-01 23:53:00,
2013-04-01 19:02:00,30.0,-2.0,-100.00,NW,306,7.0,21.0,25,0.00,,,0.00,379.000000,,2013-04-02 00:02:00,
2013-04-01 19:23:00,27.0,-2.0,-100.00,NW,310,8.0,18.0,27,0.00,,,0.00,86.000000,,2013-04-02 00:23:00,
2013-04-01 19:33:00,27.0,-2.0,-100.00,NW,310,8.0,18.0,27,0.00,,,0.00,86.000000,,2013-04-02 00:33:00,
2013-04-01 19:43:00,27.0,-2.0,-100.00,NW,310,8.0,18.0,27,0.00,,,0.00,86.000000,,2013-04-02 00:43:00,
2013-04-01 19:53:00,27.0,-2.0,-100.00,NW,310,8.0,18.0,27,0.00,,,0.00,86.000000,,2013-04-02 00:53:00,
2013-04-01 20:02:00,27.0,-2.0,-100.00,NW,310,8.0,18.0,27,0.00,,,0.00,86.000000,,2013-04-02 01:02:00,
2013-04-01 20:22:00,25.0,-1.0,-100.00,NW,305,6.0,16.0,32,0.00,,,0.00,11.000000,,2013-04-02 01:22:00,
2013-04-01 20:32:00,25.0,-1.0,-100.00,NW,305,6.0,16.0,32,0.00,,,0.00,11.000000,,2013-04-02 01:32:00,
2013-04-01 20:43:00,25.0,-1.0,-100.00,NW,305,6.0,16.0,32,0.00,,,0.00,11.000000,,2013-04-02 01:43:00,
2013-04-01 20:53:00,25.0,-1.0,-100.00,NW,305,6.0,16.0,32,0.00,,,0.00,11.000000,,2013-04-02 01:53:00,
2013-04-01 21:02:00,25.0,-1.0,-100.00,NW,305,6.0,16.0,32,0.00,,,0.00,11.000000,,2013-04-02 02:02:00,
2013-04-01 21:33:00,24.0,-1.0,-100.00,WNW,291,4.0,11.0,33,0.00,,,0.00,0.000000,,2013-04-02 02:33:00,
2013-04-01 21:43:00,24.0,-1.0,-100.00,WNW,291,4.0,11.0,33,0.00,,,0.00,0.000000,,2013-04-02 02:43:00,
2013-04-01 21:53:00,24.0,-1.0,-100.00,WNW,291,4.0,11.0,33,0.00,,,0.00,0.000000,,2013-04-02 02:53:00,
2013-04-01 22:02:00,24.0,-1.0,-100.00,WNW,291,4.0,11.0,33,0.00,,,0.00,0.000000,,2013-04-02 03:02:00,
2013-04-01 22:22:00,22.0,-1.0,-100.00,West,279,3.0,9.0,36,0.00,,,0.00,0.000000,,2013-04-02 03:22:00,
2013-04-01 22:33:00,22.0,-1.0,-100.00,West,279,3.0,9.0,36,0.00,,,0.00,0.000000,,2013-04-02 03:33:00,
2013-04-01 22:43:00,22.0,-1.0,-100.00,West,279,3.0,9.0,36,0.00,,,0.00,0.000000,,2013-04-02 03:43:00,
2013-04-01 22:53:00,22.0,-1.0,-100.00,West,279,3.0,9.0,36,0.00,,,0.00,0.000000,,2013-04-02 03:53:00,
2013-04-01 23:03:00,22.0,-1.0,-100.00,West,279,3.0,9.0,36,0.00,,,0.00,0.000000,,2013-04-02 04:03:00,
2013-04-01 23:23:00,19.0,-1.0,-100.00,West,272,3.0,6.0,41,0.00,,,0.00,0.000000,,2013-04-02 04:23:00,
2013-04-01 23:33:00,19.0,-1.0,-100.00,West,272,3.0,6.0,41,0.00,,,0.00,0.000000,,2013-04-02 04:33:00,
2013-04-01 23:43:00,19.0,-1.0,-100.00,West,272,3.0,6.0,41,0.00,,,0.00,0.000000,,2013-04-02 04:43:00,
2013-04-01 23:53:00,19.0,-1.0,-100.00,West,272,3.0,6.0,41,0.00,,,0.00,0.000000,,2013-04-02 04:53:00,